createdAt,value
2018-05-07T00:01:03.743Z,17.23
2018-05-07T00:03:31.602Z,17.40
2018-05-07T00:05:59.185Z,17.18
2018-05-07T00:08:26.602Z,17.17
2018-05-07T00:10:54.109Z,17.21
2018-05-07T00:13:21.601Z,17.15
2018-05-07T00:15:49.553Z,16.96
2018-05-07T00:18:17.030Z,17.16
2018-05-07T00:20:44.674Z,17.33
2018-05-07T00:23:12.075Z,17.04
2018-05-07T00:25:39.565Z,17.01
2018-05-07T00:28:07.444Z,17.25
2018-05-07T00:30:34.928Z,16.96
2018-05-07T00:33:02.405Z,16.86
2018-05-07T00:35:29.905Z,16.55
2018-05-07T00:37:57.400Z,16.29
2018-05-07T00:40:25.274Z,16.41
2018-05-07T00:42:53.488Z,16.19
2018-05-07T00:45:20.968Z,16.03
2018-05-07T00:47:48.485Z,15.88
2018-05-07T00:50:15.968Z,15.88
2018-05-07T00:52:43.765Z,15.72
2018-05-07T00:55:22.019Z,15.86
2018-05-07T00:57:49.588Z,15.94
2018-05-07T01:00:18.017Z,15.64
2018-05-07T01:02:45.499Z,15.43
2018-05-07T01:05:12.997Z,15.52
2018-05-07T01:07:40.477Z,15.32
2018-05-07T01:10:08.225Z,15.28
2018-05-07T01:12:35.712Z,15.09
2018-05-07T01:15:03.306Z,14.97
2018-05-07T01:17:30.817Z,14.72
2018-05-07T01:19:58.312Z,14.59
2018-05-07T01:22:25.820Z,14.70
2018-05-07T01:24:53.304Z,14.64
2018-05-07T01:27:20.785Z,14.74
2018-05-07T01:29:48.304Z,14.89
2018-05-07T01:32:15.781Z,14.71
2018-05-07T01:34:43.500Z,14.68
2018-05-07T01:37:10.983Z,14.47
2018-05-07T01:39:38.492Z,14.72
2018-05-07T01:42:06.037Z,14.54
2018-05-07T01:44:33.512Z,14.74
2018-05-07T01:47:01.280Z,14.55
2018-05-07T01:49:28.765Z,14.70
2018-05-07T01:51:56.256Z,14.64
2018-05-07T01:54:23.769Z,14.44
2018-05-07T01:56:51.284Z,14.71
2018-05-07T01:59:19.264Z,14.38
2018-05-07T02:01:46.768Z,14.40
2018-05-07T02:04:14.253Z,14.05
2018-05-07T02:06:41.768Z,14.04
2018-05-07T02:09:09.247Z,13.95
2018-05-07T02:11:37.006Z,13.71
2018-05-07T02:14:04.504Z,13.52
2018-05-07T02:16:31.983Z,13.85
2018-05-07T02:18:59.505Z,13.47
2018-05-07T02:21:26.993Z,13.43
2018-05-07T02:23:54.524Z,13.86
2018-05-07T02:26:22.000Z,13.48
2018-05-07T02:28:49.492Z,13.78
2018-05-07T02:31:17.014Z,13.75
2018-05-07T02:33:44.504Z,13.22
2018-05-07T02:36:12.524Z,13.48
2018-05-07T02:38:40.005Z,13.14
2018-05-07T02:41:07.488Z,13.20
2018-05-07T02:43:34.993Z,13.31
2018-05-07T02:46:02.468Z,12.71
2018-05-07T02:48:30.085Z,12.73
2018-05-07T02:50:57.589Z,12.66
2018-05-07T02:53:25.213Z,12.50
2018-05-07T02:55:52.731Z,12.59
2018-05-07T02:58:20.208Z,12.50
2018-05-07T03:00:48.137Z,12.77
2018-05-07T03:03:15.620Z,12.15
2018-05-07T03:05:43.111Z,12.16
2018-05-07T03:08:10.637Z,12.77
2018-05-07T03:10:38.115Z,12.96
2018-05-07T03:13:05.788Z,12.77
2018-05-07T03:15:33.269Z,12.77
2018-05-07T03:18:00.744Z,12.70
2018-05-07T03:20:28.283Z,12.80
2018-05-07T03:22:55.765Z,12.79
2018-05-07T03:25:23.309Z,12.44
2018-05-07T03:27:50.845Z,12.32
2018-05-07T03:30:18.321Z,12.03
2018-05-07T03:32:45.845Z,11.89
2018-05-07T03:35:13.357Z,11.92
2018-05-07T03:37:41.028Z,11.80
2018-05-07T03:40:08.521Z,12.05
2018-05-07T03:42:36.010Z,12.27
2018-05-07T03:45:03.520Z,11.85
2018-05-07T03:47:31.109Z,11.93
2018-05-07T03:49:58.617Z,11.57
2018-05-07T03:52:26.108Z,11.74
2018-05-07T03:54:53.609Z,11.94
2018-05-07T03:57:21.132Z,12.04
2018-05-07T03:59:48.732Z,12.17
2018-05-07T04:02:16.341Z,11.81
2018-05-07T04:04:43.828Z,11.87
2018-05-07T04:07:11.308Z,11.67
2018-05-07T04:09:38.809Z,11.51
2018-05-07T04:12:06.296Z,12.10
2018-05-07T04:14:34.079Z,11.43
2018-05-07T04:17:13.372Z,11.80
2018-05-07T04:19:52.967Z,11.98
2018-05-07T04:25:20.947Z,11.83
2018-05-07T04:27:48.428Z,11.92
2018-05-07T04:30:15.913Z,11.76
2018-05-07T04:32:43.428Z,11.78
2018-05-07T04:35:10.917Z,11.96
2018-05-07T04:37:38.640Z,11.91
2018-05-07T04:40:06.133Z,11.98
2018-05-07T04:42:33.612Z,12.03
2018-05-07T04:45:01.109Z,12.49
2018-05-07T04:47:28.585Z,13.36
2018-05-07T04:49:56.400Z,14.33
2018-05-07T04:52:23.917Z,14.97
2018-05-07T04:54:51.404Z,15.39
2018-05-07T04:57:18.912Z,15.90
2018-05-07T04:59:46.406Z,16.25
2018-05-07T05:02:14.372Z,15.84
2018-05-07T05:04:42.011Z,16.64
2018-05-07T05:07:09.568Z,17.20
2018-05-07T05:09:37.016Z,16.87
2018-05-07T05:12:04.504Z,16.96
2018-05-07T05:14:32.223Z,17.30
2018-05-07T05:16:59.713Z,17.45
2018-05-07T05:19:27.204Z,17.63
2018-05-07T05:21:54.735Z,17.84
2018-05-07T05:24:22.218Z,18.23
2018-05-07T05:26:49.987Z,18.16
2018-05-07T05:29:17.464Z,18.40
2018-05-07T05:31:44.976Z,18.28
2018-05-07T05:34:12.503Z,18.65
2018-05-07T05:36:40.017Z,18.91
2018-05-07T05:39:07.552Z,18.84
2018-05-07T05:41:35.030Z,19.14
2018-05-07T05:44:02.513Z,19.43
2018-05-07T05:46:30.017Z,19.55
2018-05-07T05:48:57.644Z,19.10
2018-05-07T05:51:25.168Z,19.23
2018-05-07T05:53:52.652Z,19.45
2018-05-07T05:56:20.312Z,19.85
2018-05-07T05:58:47.736Z,20.09
2018-05-07T06:01:15.223Z,19.38
2018-05-07T06:03:42.781Z,20.21
2018-05-07T06:06:10.245Z,19.96
2018-05-07T06:08:37.741Z,20.23
2018-05-07T06:11:05.349Z,19.94
2018-05-07T06:13:32.834Z,19.52
2018-05-07T06:16:00.352Z,20.14
2018-05-07T06:18:27.874Z,18.80
2018-05-07T06:20:55.365Z,19.05
2018-05-07T06:23:22.896Z,19.22
2018-05-07T06:25:50.381Z,18.87
2018-05-07T06:28:17.901Z,18.62
2018-05-07T06:30:45.396Z,18.52
2018-05-07T06:33:12.909Z,18.63
2018-05-07T06:35:40.458Z,18.50
2018-05-07T06:38:07.936Z,18.74
2018-05-07T06:40:35.612Z,18.62
2018-05-07T06:43:03.089Z,18.16
2018-05-07T06:45:30.570Z,18.27
2018-05-07T06:47:58.093Z,18.48
2018-05-07T06:50:25.570Z,18.25
2018-05-07T06:52:53.173Z,18.12
2018-05-07T06:55:20.649Z,18.17
2018-05-07T06:57:48.125Z,18.41
2018-05-07T07:00:15.629Z,18.52
2018-05-07T07:02:43.163Z,18.86
2018-05-07T07:05:11.125Z,18.37
2018-05-07T07:07:38.618Z,18.34
2018-05-07T07:10:06.108Z,18.75
2018-05-07T07:12:33.613Z,19.06
2018-05-07T07:15:01.102Z,18.71
2018-05-07T07:17:28.641Z,18.83
2018-05-07T07:19:56.134Z,18.78
2018-05-07T07:22:23.640Z,18.86
2018-05-07T07:24:51.152Z,18.89
2018-05-07T07:27:18.645Z,18.95
2018-05-07T07:29:46.329Z,19.01
2018-05-07T07:32:13.832Z,18.96
2018-05-07T07:34:41.312Z,18.92
2018-05-07T07:37:08.841Z,19.31
2018-05-07T07:39:36.320Z,19.44
2018-05-07T07:42:04.189Z,19.50
2018-05-07T07:44:31.673Z,19.32
2018-05-07T07:46:59.160Z,19.60
2018-05-07T07:49:26.687Z,19.37
2018-05-07T07:51:54.201Z,19.67
2018-05-07T07:54:21.882Z,19.87
2018-05-07T07:56:49.374Z,19.52
2018-05-07T07:59:16.849Z,19.62
2018-05-07T08:01:44.354Z,20.02
2018-05-07T08:04:11.872Z,20.21
2018-05-07T08:06:39.470Z,20.10
2018-05-07T08:09:06.953Z,20.53
2018-05-07T08:11:34.428Z,20.36
2018-05-07T08:14:01.936Z,20.36
2018-05-07T08:16:29.418Z,20.28
2018-05-07T08:18:56.960Z,20.33
2018-05-07T08:21:24.441Z,20.09
2018-05-07T08:23:51.929Z,20.20
2018-05-07T08:26:19.449Z,20.35
2018-05-07T08:28:46.941Z,20.35
2018-05-07T08:31:14.454Z,20.63
2018-05-07T08:33:41.959Z,20.57
2018-05-07T08:36:09.445Z,20.65
2018-05-07T08:38:36.972Z,20.91
2018-05-07T08:41:04.454Z,20.78
2018-05-07T08:43:32.189Z,20.96
2018-05-07T08:45:59.669Z,20.73
2018-05-07T08:48:27.165Z,21.07
2018-05-07T08:50:54.763Z,20.81
2018-05-07T08:53:22.211Z,20.95
2018-05-07T08:55:50.139Z,20.98
2018-05-07T08:58:17.624Z,21.04
2018-05-07T09:00:45.129Z,21.06
2018-05-07T09:03:12.637Z,21.98
2018-05-07T09:05:40.148Z,21.80
2018-05-07T09:08:07.815Z,21.38
2018-05-07T09:10:35.173Z,21.91
2018-05-07T09:13:02.671Z,21.52
2018-05-07T09:15:30.218Z,21.89
2018-05-07T09:17:57.700Z,21.56
2018-05-07T09:20:25.338Z,21.34
2018-05-07T09:22:52.844Z,21.43
2018-05-07T09:25:20.333Z,21.13
2018-05-07T09:27:47.837Z,21.91
2018-05-07T09:30:15.346Z,21.93
2018-05-07T09:32:43.013Z,21.83
2018-05-07T09:35:10.492Z,21.94
2018-05-07T09:37:37.999Z,21.59
2018-05-07T09:40:05.516Z,21.67
2018-05-07T09:42:33.000Z,21.84
2018-05-07T09:45:00.581Z,21.99
2018-05-07T09:47:28.070Z,21.80
2018-05-07T09:49:55.552Z,22.22
2018-05-07T09:52:23.072Z,22.29
2018-05-07T09:54:50.550Z,22.87
2018-05-07T09:57:18.401Z,23.09
2018-05-07T09:59:45.885Z,22.88
2018-05-07T10:02:13.371Z,22.84
2018-05-07T10:04:40.876Z,22.74
2018-05-07T10:07:08.365Z,22.65
2018-05-07T10:09:36.464Z,22.78
2018-05-07T10:12:03.945Z,22.86
2018-05-07T10:14:31.453Z,22.87
2018-05-07T10:16:59.002Z,22.98
2018-05-07T10:19:26.476Z,23.38
2018-05-07T10:21:54.140Z,23.05
2018-05-07T10:24:21.639Z,23.63
2018-05-07T10:26:49.130Z,23.18
2018-05-07T10:29:16.641Z,23.26
2018-05-07T10:31:44.146Z,23.10
2018-05-07T10:34:11.906Z,23.53
2018-05-07T10:36:39.384Z,23.52
2018-05-07T10:39:06.881Z,23.23
2018-05-07T10:41:34.381Z,23.72
2018-05-07T10:44:01.869Z,23.84
2018-05-07T10:46:29.651Z,23.96
2018-05-07T10:48:57.129Z,23.70
2018-05-07T10:51:24.617Z,23.91
2018-05-07T10:53:52.137Z,24.15
2018-05-07T10:56:19.616Z,24.03
2018-05-07T10:58:47.395Z,23.42
2018-05-07T11:01:14.873Z,23.98
2018-05-07T11:03:42.352Z,23.98
2018-05-07T11:06:09.893Z,23.75
2018-05-07T11:08:37.385Z,24.10
2018-05-07T11:11:05.098Z,23.75
2018-05-07T11:13:32.619Z,24.03
2018-05-07T11:16:00.113Z,24.36
2018-05-07T11:18:27.637Z,24.30
2018-05-07T11:20:55.117Z,24.64
2018-05-07T11:23:22.805Z,24.48
2018-05-07T11:25:50.297Z,24.00
2018-05-07T11:28:17.925Z,24.47
2018-05-07T11:30:45.433Z,24.20
2018-05-07T11:33:12.928Z,24.64
2018-05-07T11:35:40.675Z,24.43
2018-05-07T11:38:08.157Z,24.76
2018-05-07T11:40:35.753Z,24.58
2018-05-07T11:43:03.257Z,24.28
2018-05-07T11:45:30.747Z,24.24
2018-05-07T11:47:58.280Z,24.54
2018-05-07T11:50:25.785Z,24.54
2018-05-07T11:52:53.272Z,25.14
2018-05-07T11:55:20.792Z,25.06
2018-05-07T11:57:48.289Z,25.20
2018-05-07T12:00:15.805Z,24.65
2018-05-07T12:02:43.348Z,25.17
2018-05-07T12:05:10.797Z,25.04
2018-05-07T12:07:38.320Z,24.91
2018-05-07T12:10:05.796Z,24.87
2018-05-07T12:12:33.336Z,24.49
2018-05-07T12:15:00.825Z,24.79
2018-05-07T12:17:28.309Z,24.90
2018-05-07T12:19:55.841Z,24.82
2018-05-07T12:22:23.324Z,24.94
2018-05-07T12:24:51.096Z,25.11
2018-05-07T12:27:18.589Z,24.76
2018-05-07T12:29:46.083Z,24.80
2018-05-07T12:32:13.589Z,25.11
2018-05-07T12:34:41.065Z,24.66
2018-05-07T12:37:08.581Z,25.22
2018-05-07T12:39:36.087Z,25.04
2018-05-07T12:42:03.707Z,25.15
2018-05-07T12:44:31.233Z,25.02
2018-05-07T12:46:58.709Z,24.94
2018-05-07T12:49:26.237Z,25.27
2018-05-07T12:51:53.722Z,25.20
2018-05-07T12:54:21.260Z,24.66
2018-05-07T12:56:48.765Z,24.72
2018-05-07T12:59:16.248Z,25.07
2018-05-07T13:01:43.990Z,25.29
2018-05-07T13:04:11.488Z,25.04
2018-05-07T13:06:38.973Z,25.44
2018-05-07T13:09:06.485Z,25.55
2018-05-07T13:11:34.045Z,25.23
2018-05-07T13:14:01.737Z,25.23
2018-05-07T13:16:29.223Z,25.61
2018-05-07T13:18:56.717Z,25.29
2018-05-07T13:21:25.169Z,25.07
2018-05-07T13:23:52.649Z,25.53
2018-05-07T13:26:20.201Z,25.28
2018-05-07T13:28:47.685Z,25.59
2018-05-07T13:31:15.252Z,25.51
2018-05-07T13:33:42.897Z,25.49
2018-05-07T13:36:10.386Z,25.28
2018-05-07T13:38:38.049Z,25.29
2018-05-07T13:41:05.525Z,25.40
2018-05-07T13:43:33.006Z,25.40
2018-05-07T13:46:00.516Z,25.38
2018-05-07T13:48:27.997Z,25.65
2018-05-07T13:50:55.697Z,25.49
2018-05-07T13:53:23.196Z,25.69
2018-05-07T13:55:50.716Z,25.91
2018-05-07T13:58:18.232Z,25.58
2018-05-07T14:00:45.731Z,25.73
2018-05-07T14:03:13.402Z,25.89
2018-05-07T14:05:40.893Z,25.57
2018-05-07T14:08:08.380Z,25.67
2018-05-07T14:10:35.892Z,25.68
2018-05-07T14:13:03.400Z,25.68
2018-05-07T14:15:31.009Z,26.00
2018-05-07T14:17:58.497Z,25.64
2018-05-07T14:20:25.981Z,25.84
2018-05-07T14:22:53.509Z,25.79
2018-05-07T14:25:20.986Z,25.61
2018-05-07T14:27:48.772Z,25.45
2018-05-07T14:30:16.277Z,25.53
2018-05-07T14:32:43.785Z,25.72
2018-05-07T14:35:11.304Z,25.87
2018-05-07T14:37:38.801Z,25.94
2018-05-07T14:40:06.350Z,25.99
2018-05-07T14:42:33.836Z,26.28
2018-05-07T14:45:01.345Z,26.26
2018-05-07T14:47:28.845Z,26.12
2018-05-07T14:49:56.365Z,25.84
2018-05-07T14:52:24.081Z,25.94
2018-05-07T14:54:51.582Z,26.04
2018-05-07T14:57:19.077Z,25.97
2018-05-07T14:59:46.585Z,25.97
2018-05-07T15:02:14.081Z,25.68
2018-05-07T15:04:41.659Z,25.88
2018-05-07T15:07:09.149Z,25.93
2018-05-07T15:09:36.669Z,26.11
2018-05-07T15:12:04.192Z,26.05
2018-05-07T15:14:31.681Z,26.17
2018-05-07T15:16:59.185Z,26.03
2018-05-07T15:19:26.668Z,26.25
2018-05-07T15:21:54.202Z,26.23
2018-05-07T15:24:21.696Z,26.37
2018-05-07T15:26:49.190Z,26.01
2018-05-07T15:29:16.764Z,25.98
2018-05-07T15:31:44.233Z,26.10
2018-05-07T15:34:11.998Z,26.17
2018-05-07T15:36:39.488Z,26.34
2018-05-07T15:39:06.989Z,26.17
2018-05-07T15:41:34.525Z,26.12
2018-05-07T15:44:02.090Z,26.14
2018-05-07T15:46:29.587Z,26.20
2018-05-07T15:48:57.122Z,26.14
2018-05-07T15:51:24.678Z,26.23
2018-05-07T15:53:52.205Z,26.04
2018-05-07T15:56:19.632Z,26.17
2018-05-07T15:58:47.396Z,26.11
2018-05-07T16:01:14.884Z,26.04
2018-05-07T16:03:42.372Z,26.21
2018-05-07T16:06:09.892Z,26.16
2018-05-07T16:08:37.411Z,26.11
2018-05-07T16:11:04.933Z,25.92
2018-05-07T16:13:32.436Z,26.20
2018-05-07T16:15:59.937Z,26.04
2018-05-07T16:18:27.453Z,25.87
2018-05-07T16:20:55.081Z,26.03
2018-05-07T16:23:23.165Z,26.00
2018-05-07T16:25:50.521Z,25.88
2018-05-07T16:28:17.983Z,26.00
2018-05-07T16:30:45.551Z,26.06
2018-05-07T16:33:13.041Z,26.09
2018-05-07T16:35:40.772Z,26.06
2018-05-07T16:38:08.267Z,25.86
2018-05-07T16:40:35.749Z,25.87
2018-05-07T16:43:03.258Z,25.71
2018-05-07T16:45:30.815Z,25.71
2018-05-07T16:47:58.325Z,25.83
2018-05-07T16:50:25.829Z,25.82
2018-05-07T16:52:53.313Z,25.70
2018-05-07T16:55:20.833Z,25.79
2018-05-07T16:57:48.322Z,25.68
2018-05-07T17:00:15.800Z,25.69
2018-05-07T17:02:43.308Z,25.76
2018-05-07T17:05:11.725Z,25.62
2018-05-07T17:07:39.229Z,25.60
2018-05-07T17:10:06.745Z,25.55
2018-05-07T17:12:34.230Z,25.48
2018-05-07T17:15:01.712Z,25.60
2018-05-07T17:17:29.230Z,25.44
2018-05-07T17:19:56.725Z,25.38
2018-05-07T17:22:24.440Z,25.36
2018-05-07T17:24:51.964Z,25.41
2018-05-07T17:27:19.470Z,25.31
2018-05-07T17:29:46.945Z,25.31
2018-05-07T17:32:14.632Z,25.23
2018-05-07T17:34:42.145Z,25.22
2018-05-07T17:37:09.641Z,25.30
2018-05-07T17:39:37.340Z,25.15
2018-05-07T17:42:04.817Z,25.00
2018-05-07T17:44:44.372Z,24.95
2018-05-07T17:47:23.632Z,24.86
2018-05-07T17:49:51.285Z,24.71
2018-05-07T17:52:18.761Z,24.59
2018-05-07T17:54:46.323Z,24.56
2018-05-07T17:57:14.377Z,24.54
2018-05-07T17:59:41.881Z,24.58
2018-05-07T18:02:09.380Z,24.52
2018-05-07T18:04:37.042Z,24.47
2018-05-07T18:07:04.534Z,24.07
2018-05-07T18:09:32.019Z,24.18
2018-05-07T18:11:59.638Z,24.01
2018-05-07T18:14:27.125Z,23.86
2018-05-07T18:16:54.604Z,23.83
2018-05-07T18:19:22.353Z,23.59
2018-05-07T18:21:49.853Z,23.66
2018-05-07T18:24:17.404Z,23.67
2018-05-07T18:26:45.257Z,23.65
2018-05-07T18:29:12.930Z,23.61
2018-05-07T18:31:40.505Z,23.55
2018-05-07T18:34:08.034Z,23.39
2018-05-07T18:36:35.541Z,23.07
2018-05-07T18:39:03.028Z,22.90
2018-05-07T18:41:30.746Z,22.74
2018-05-07T18:43:58.236Z,22.73
2018-05-07T18:46:25.749Z,22.58
2018-05-07T18:48:53.429Z,22.24
2018-05-07T18:51:20.913Z,21.92
2018-05-07T18:53:48.417Z,21.86
2018-05-07T18:56:16.146Z,21.47
2018-05-07T18:58:43.665Z,21.36
2018-05-07T19:01:11.178Z,20.99
2018-05-07T19:03:38.733Z,20.95
2018-05-07T19:06:06.227Z,20.88
2018-05-07T19:08:33.715Z,20.77
2018-05-07T19:11:01.250Z,20.79
2018-05-07T19:13:28.739Z,20.48
2018-05-07T19:15:56.225Z,20.30
2018-05-07T19:18:23.777Z,20.38
2018-05-07T19:20:51.294Z,20.33
2018-05-07T19:23:18.780Z,20.26
2018-05-07T19:25:46.320Z,20.18
2018-05-07T19:28:13.826Z,20.03
2018-05-07T19:30:42.117Z,19.94
2018-05-07T19:33:09.685Z,19.68
2018-05-07T19:35:37.201Z,19.76
2018-05-07T19:38:05.073Z,19.57
2018-05-07T19:40:32.563Z,19.55
2018-05-07T19:43:00.177Z,19.35
2018-05-07T19:45:27.904Z,19.20
2018-05-07T19:47:55.458Z,19.17
2018-05-07T19:50:22.927Z,19.06
2018-05-07T19:52:50.462Z,18.84
2018-05-07T19:55:18.023Z,19.08
2018-05-07T19:57:46.689Z,19.16
2018-05-07T20:00:14.966Z,19.05
2018-05-07T20:02:42.461Z,18.94
2018-05-07T20:05:10.048Z,19.01
2018-05-07T20:07:37.541Z,19.04
2018-05-07T20:10:05.069Z,18.88
2018-05-07T20:12:33.274Z,18.96
2018-05-07T20:15:00.772Z,18.87
2018-05-07T20:17:28.253Z,18.70
2018-05-07T20:19:55.953Z,18.65
2018-05-07T20:22:23.648Z,18.38
2018-05-07T20:24:51.140Z,18.05
2018-05-07T20:27:18.761Z,17.82
2018-05-07T20:29:46.265Z,18.16
2018-05-07T20:32:13.749Z,18.01
2018-05-07T20:34:41.614Z,18.08
2018-05-07T20:37:09.115Z,17.94
2018-05-07T20:39:36.605Z,17.97
2018-05-07T20:42:04.331Z,17.93
2018-05-07T20:44:32.078Z,17.76
2018-05-07T20:46:59.570Z,17.27
2018-05-07T20:49:27.095Z,17.60
2018-05-07T20:51:54.577Z,17.41
2018-05-07T20:54:22.064Z,17.45
2018-05-07T20:56:49.733Z,17.29
2018-05-07T20:59:17.251Z,17.35
2018-05-07T21:01:44.746Z,17.37
2018-05-07T21:04:12.661Z,17.37
2018-05-07T21:06:40.141Z,17.45
2018-05-07T21:09:07.625Z,17.60
2018-05-07T21:11:35.190Z,17.79
2018-05-07T21:14:02.676Z,18.07
2018-05-07T21:16:30.153Z,18.58
2018-05-07T21:18:57.876Z,18.87
2018-05-07T21:21:25.361Z,18.98
2018-05-07T21:23:52.837Z,19.15
2018-05-07T21:26:20.603Z,19.25
2018-05-07T21:28:48.092Z,19.32
2018-05-07T21:31:15.592Z,19.41
2018-05-07T21:33:43.339Z,19.43
2018-05-07T21:36:10.821Z,19.44
2018-05-07T21:38:38.296Z,19.47
2018-05-07T21:41:05.956Z,19.49
2018-05-07T21:43:33.470Z,19.41
2018-05-07T21:46:00.993Z,19.36
2018-05-07T21:48:28.517Z,19.29
2018-05-07T21:50:56.009Z,19.27
2018-05-07T21:53:23.507Z,19.30
2018-05-07T21:55:51.025Z,19.26
2018-05-07T21:58:18.503Z,19.27
2018-05-07T22:00:46.017Z,19.27
2018-05-07T22:03:13.542Z,19.21
2018-05-07T22:05:41.025Z,19.22
2018-05-07T22:08:08.570Z,19.17
2018-05-07T22:10:36.382Z,19.25
2018-05-07T22:13:03.857Z,19.32
2018-05-07T22:15:31.340Z,19.32
2018-05-07T22:17:58.861Z,19.59
2018-05-07T22:20:26.347Z,19.42
2018-05-07T22:22:53.824Z,19.41
2018-05-07T22:25:21.325Z,19.35
2018-05-07T22:27:48.805Z,19.34
2018-05-07T22:30:16.460Z,19.36
2018-05-07T22:32:43.940Z,19.21
2018-05-07T22:35:11.449Z,19.20
2018-05-07T22:37:38.988Z,19.00
2018-05-07T22:40:06.508Z,19.06
2018-05-07T22:42:34.309Z,19.23
2018-05-07T22:45:01.809Z,19.03
2018-05-07T22:47:29.321Z,19.04
2018-05-07T22:49:56.832Z,18.85
2018-05-07T22:52:24.379Z,19.31
2018-05-07T22:54:52.168Z,19.19
2018-05-07T22:57:19.653Z,19.16
2018-05-07T22:59:47.138Z,19.33
2018-05-07T23:02:14.645Z,18.90
2018-05-07T23:04:42.126Z,19.19
2018-05-07T23:07:09.825Z,18.43
2018-05-07T23:09:37.309Z,18.78
2018-05-07T23:12:04.823Z,18.38
2018-05-07T23:14:32.357Z,18.34
2018-05-07T23:16:59.832Z,17.96
2018-05-07T23:19:27.616Z,17.97
2018-05-07T23:21:55.101Z,17.25
2018-05-07T23:24:22.577Z,17.40
2018-05-07T23:26:50.096Z,17.08
2018-05-07T23:29:17.576Z,17.19
2018-05-07T23:31:45.105Z,17.42
2018-05-07T23:34:12.601Z,17.19
2018-05-07T23:36:41.885Z,17.17
2018-05-07T23:39:09.393Z,17.20
2018-05-07T23:41:36.889Z,17.05
2018-05-07T23:44:04.661Z,16.91
2018-05-07T23:46:32.182Z,16.93
2018-05-07T23:48:59.662Z,16.76
2018-05-07T23:51:27.356Z,16.62
2018-05-07T23:53:54.869Z,16.52
2018-05-07T23:56:22.397Z,16.56
2018-05-07T23:58:49.904Z,16.64
